Time;durP1;ratioP1;P1;durP2;ratioP2;P2;SDS_P1;SDS_P2;PMS_P1;PMS_P2;Temp;Humidity;BMP_temperature;BMP_pressure;BME280_temperature;BME280_humidity;BME280_pressure;Samples;Min_cycle;Max_cycle;Signal;HPM_P1;HPM_P2
2022/10/29 00:02:03;;;;;;;9.30;2.80;;;;;;;;;;5007446;28;20050;-74
2022/10/29 00:04:31;;;;;;;10.52;3.13;;;;;;;;;;5008829;28;20045;-76
2022/10/29 00:07:06;;;;;;;9.70;2.75;;;;;;;;;;5011453;28;20053;-74
2022/10/29 00:09:41;;;;;;;11.90;2.92;;;;;;;;;;5006054;28;20058;-73
2022/10/29 00:12:09;;;;;;;4.75;2.08;;;;;;;;;;5012351;28;20199;-77
2022/10/29 00:14:45;;;;;;;13.15;2.40;;;;;;;;;;5011660;28;20054;-76
2022/10/29 00:17:14;;;;;;;9.25;1.98;;;;;;;;;;5006636;28;20133;-73
2022/10/29 00:19:44;;;;;;;7.82;2.72;;;;;;;;;;5010152;28;20058;-74
2022/10/29 00:22:12;;;;;;;6.90;2.28;;;;;;;;;;5010063;28;20046;-73
2022/10/29 00:24:44;;;;;;;3.17;1.85;;;;;;;;;;5022620;28;20062;-76
2022/10/29 00:27:16;;;;;;;7.28;2.10;;;;;;;;;;5009645;28;20112;-76
2022/10/29 00:30:10;;;;;;;6.15;2.30;;;;;;;;;;5006120;28;20057;-73
2022/10/29 00:32:42;;;;;;;13.93;2.70;;;;;;;;;;5003046;28;20050;-74
2022/10/29 00:35:10;;;;;;;4.68;1.80;;;;;;;;;;5011021;28;20513;-74
2022/10/29 00:37:39;;;;;;;9.02;2.53;;;;;;;;;;5006832;28;20872;-74
2022/10/29 00:40:10;;;;;;;5.40;2.15;;;;;;;;;;5002171;28;20054;-74
2022/10/29 00:42:38;;;;;;;9.40;2.67;;;;;;;;;;5005724;28;20211;-75
2022/10/29 00:45:06;;;;;;;9.20;2.63;;;;;;;;;;5002096;28;20869;-75
2022/10/29 00:47:37;;;;;;;8.10;2.22;;;;;;;;;;5005109;28;20051;-74
2022/10/29 00:50:06;;;;;;;6.30;2.38;;;;;;;;;;5005495;28;20058;-74
2022/10/29 00:52:43;;;;;;;11.07;2.88;;;;;;;;;;5008028;28;20050;-75
2022/10/29 00:55:16;;;;;;;7.22;2.30;;;;;;;;;;4998316;28;20909;-74
2022/10/29 00:57:55;;;;;;;6.25;2.78;;;;;;;;;;5010795;28;20053;-74
2022/10/29 01:00:26;;;;;;;10.30;2.80;;;;;;;;;;5004641;28;20153;-74
2022/10/29 01:02:54;;;;;;;10.13;2.90;;;;;;;;;;5005584;28;20065;-74
2022/10/29 01:05:25;;;;;;;4.35;1.98;;;;;;;;;;5010860;28;20054;-74
2022/10/29 01:07:52;;;;;;;4.53;1.95;;;;;;;;;;5023246;28;20070;-75
2022/10/29 01:10:23;;;;;;;3.22;1.55;;;;;;;;;;5004445;28;20852;-74
2022/10/29 01:13:15;;;;;;;2.72;1.20;;;;;;;;;;5002379;28;20696;-74
2022/10/29 01:15:57;;;;;;;4.47;1.70;;;;;;;;;;5007548;28;20146;-75
2022/10/29 01:18:31;;;;;;;10.63;2.45;;;;;;;;;;5004680;28;20058;-74
2022/10/29 01:21:07;;;;;;;18.75;2.65;;;;;;;;;;5010666;28;20577;-74
2022/10/29 01:23:51;;;;;;;8.70;2.55;;;;;;;;;;5009593;28;20143;-74
2022/10/29 01:26:37;;;;;;;9.82;2.55;;;;;;;;;;5005522;28;20061;-74
2022/10/29 01:29:05;;;;;;;7.88;2.28;;;;;;;;;;5005640;28;20051;-74
2022/10/29 01:31:40;;;;;;;4.55;2.28;;;;;;;;;;5007123;28;20868;-73
2022/10/29 01:34:17;;;;;;;4.40;2.10;;;;;;;;;;5009600;28;20069;-74
2022/10/29 01:36:54;;;;;;;3.78;1.80;;;;;;;;;;5000089;28;20043;-73
2022/10/29 01:39:33;;;;;;;6.40;2.17;;;;;;;;;;5005186;28;20054;-74
2022/10/29 01:42:24;;;;;;;6.25;2.22;;;;;;;;;;5002995;28;20054;-74
2022/10/29 01:45:19;;;;;;;3.63;1.98;;;;;;;;;;5008850;28;20113;-74
2022/10/29 01:47:49;;;;;;;3.28;1.63;;;;;;;;;;5006127;28;20046;-74
2022/10/29 01:50:22;;;;;;;9.02;2.20;;;;;;;;;;5008686;28;20792;-74
2022/10/29 01:53:16;;;;;;;4.40;1.90;;;;;;;;;;5008536;28;20046;-74
2022/10/29 01:55:44;;;;;;;4.00;2.00;;;;;;;;;;5004896;28;20055;-73
2022/10/29 01:58:15;;;;;;;3.10;2.10;;;;;;;;;;5007310;28;20089;-74
2022/10/29 02:00:58;;;;;;;8.45;1.90;;;;;;;;;;5009686;28;20078;-73
2022/10/29 02:03:33;;;;;;;6.65;1.58;;;;;;;;;;5026439;28;20937;-73
2022/10/29 02:06:12;;;;;;;17.77;2.30;;;;;;;;;;5006075;28;20547;-73
2022/10/29 02:08:44;;;;;;;7.47;1.70;;;;;;;;;;5005283;28;20054;-74
2022/10/29 02:11:20;;;;;;;10.48;1.95;;;;;;;;;;5004437;28;20054;-74
2022/10/29 02:14:30;;;;;;;13.52;2.22;;;;;;;;;;5021522;28;20054;-73
2022/10/29 02:17:01;;;;;;;10.70;2.47;;;;;;;;;;4974881;28;20083;-73
2022/10/29 02:19:33;;;;;;;11.85;2.83;;;;;;;;;;4980834;28;21006;-73
2022/10/29 02:22:02;;;;;;;;;;;;;;;;;;4986551;28;20095;-73
2022/10/29 02:24:37;;;;;;;20.55;3.30;;;;;;;;;;4977721;28;43246;-74
2022/10/29 02:27:08;;;;;;;23.10;3.40;;;;;;;;;;4973522;28;20361;-74
2022/10/29 02:29:38;;;;;;;21.65;3.30;;;;;;;;;;4975405;28;20070;-73
2022/10/29 02:32:08;;;;;;;24.27;4.07;;;;;;;;;;4976602;28;20055;-74
2022/10/29 02:34:52;;;;;;;22.98;3.47;;;;;;;;;;4944514;28;20358;-74
2022/10/29 02:37:23;;;;;;;11.88;3.60;;;;;;;;;;4935771;28;20044;-73
2022/10/29 02:39:54;;;;;;;15.02;3.03;;;;;;;;;;4957165;28;20152;-73
2022/10/29 02:42:28;;;;;;;42.47;4.13;;;;;;;;;;4953238;28;20138;-73
2022/10/29 02:45:10;;;;;;;;;;;;;;;;;;;;;
2022/10/29 02:47:44;;;;;;;41.03;4.22;;;;;;;;;;4953612;28;20866;-73
2022/10/29 02:50:18;;;;;;;30.17;3.90;;;;;;;;;;4953337;28;20066;-74
2022/10/29 02:52:46;;;;;;;65.60;5.45;;;;;;;;;;4962930;28;20099;-73
2022/10/29 02:55:24;;;;;;;30.88;4.80;;;;;;;;;;4966111;28;20082;-74
2022/10/29 02:57:59;;;;;;;34.75;5.70;;;;;;;;;;4976810;28;20775;-73
2022/10/29 03:00:27;;;;;;;14.05;4.47;;;;;;;;;;4958347;28;20086;-74
2022/10/29 03:02:55;;;;;;;30.67;4.95;;;;;;;;;;4963030;28;20032;-73
2022/10/29 03:05:27;;;;;;;52.23;5.63;;;;;;;;;;4967519;28;20127;-73
2022/10/29 03:07:55;;;;;;;47.00;5.47;;;;;;;;;;4967157;28;20291;-74
2022/10/29 03:10:29;;;;;;;16.60;4.28;;;;;;;;;;4967694;28;20055;-74
2022/10/29 03:12:59;;;;;;;21.23;3.47;;;;;;;;;;4970990;28;20929;-74
2022/10/29 03:15:33;;;;;;;15.45;4.35;;;;;;;;;;4968860;28;20913;-74
2022/10/29 03:18:13;;;;;;;34.28;3.80;;;;;;;;;;4966080;28;20610;-74
2022/10/29 03:20:42;;;;;;;26.17;4.15;;;;;;;;;;4970294;28;20857;-73
2022/10/29 03:23:09;;;;;;;30.92;4.18;;;;;;;;;;4961274;28;20510;-73
2022/10/29 03:25:45;;;;;;;36.58;4.10;;;;;;;;;;4969275;28;20132;-74
2022/10/29 03:28:22;;;;;;;21.13;3.60;;;;;;;;;;4973592;28;20069;-73
2022/10/29 03:30:50;;;;;;;24.13;3.28;;;;;;;;;;4966057;28;20865;-73
2022/10/29 03:33:28;;;;;;;41.22;4.55;;;;;;;;;;4981815;28;20146;-73
2022/10/29 03:36:00;;;;;;;22.88;3.10;;;;;;;;;;5013208;28;20053;-72
2022/10/29 03:38:27;;;;;;;65.20;5.43;;;;;;;;;;5022139;28;20062;-74
2022/10/29 03:41:25;;;;;;;33.72;4.63;;;;;;;;;;5012060;28;20050;-73
2022/10/29 03:43:52;;;;;;;36.60;4.40;;;;;;;;;;5009193;28;20168;-73
2022/10/29 03:46:20;;;;;;;30.27;4.78;;;;;;;;;;5012175;28;20254;-73
2022/10/29 03:48:49;;;;;;;34.35;5.28;;;;;;;;;;5011927;28;20046;-73
2022/10/29 03:51:17;;;;;;;51.20;5.60;;;;;;;;;;5014005;28;20509;-73
2022/10/29 03:53:45;;;;;;;29.13;4.95;;;;;;;;;;5003833;28;20555;-73
2022/10/29 03:56:15;;;;;;;27.65;5.10;;;;;;;;;;5003080;28;20054;-74
2022/10/29 03:58:57;;;;;;;29.83;5.40;;;;;;;;;;5007143;28;20091;-73
2022/10/29 04:01:28;;;;;;;23.88;5.30;;;;;;;;;;5009441;28;20089;-73
2022/10/29 04:03:56;;;;;;;20.98;4.28;;;;;;;;;;5011961;28;20061;-72
2022/10/29 04:06:24;;;;;;;20.65;4.57;;;;;;;;;;5008759;28;20073;-73
2022/10/29 04:08:54;;;;;;;29.05;4.80;;;;;;;;;;5012560;28;20414;-74
2022/10/29 04:11:25;;;;;;;8.23;4.15;;;;;;;;;;5019360;28;20071;-72
2022/10/29 04:13:53;;;;;;;19.00;4.13;;;;;;;;;;5009468;28;20050;-72
2022/10/29 04:16:21;;;;;;;15.48;3.92;;;;;;;;;;5008243;28;20055;-72
2022/10/29 04:18:57;;;;;;;11.55;3.90;;;;;;;;;;5012349;28;20054;-73
2022/10/29 04:21:27;;;;;;;17.38;3.30;;;;;;;;;;5007189;28;20505;-73
2022/10/29 04:24:38;;;;;;;16.80;3.88;;;;;;;;;;5015945;28;20063;-73
2022/10/29 04:27:46;;;;;;;10.05;3.45;;;;;;;;;;5014629;28;20054;-73
2022/10/29 04:30:43;;;;;;;12.32;3.60;;;;;;;;;;5013979;28;20082;-72
2022/10/29 04:33:13;;;;;;;9.38;4.07;;;;;;;;;;5015696;28;20973;-73
2022/10/29 04:35:50;;;;;;;11.48;4.30;;;;;;;;;;5032665;28;20051;-73
2022/10/29 04:38:19;;;;;;;15.52;4.82;;;;;;;;;;5032197;28;20073;-73
2022/10/29 04:40:46;;;;;;;16.35;4.93;;;;;;;;;;5013273;28;20105;-73
2022/10/29 04:43:14;;;;;;;12.65;4.82;;;;;;;;;;5015786;28;20051;-73
2022/10/29 04:45:45;;;;;;;9.93;4.65;;;;;;;;;;5010427;28;20058;-72
2022/10/29 04:48:13;;;;;;;8.15;4.20;;;;;;;;;;5018075;28;20062;-72
2022/10/29 04:50:40;;;;;;;10.35;5.90;;;;;;;;;;5014867;28;20047;-71
2022/10/29 04:53:22;;;;;;;11.80;5.28;;;;;;;;;;5017641;28;20975;-73
2022/10/29 04:55:50;;;;;;;10.23;5.10;;;;;;;;;;5032873;28;20057;-74
2022/10/29 04:58:24;;;;;;;10.75;5.53;;;;;;;;;;5010140;28;20049;-74
2022/10/29 05:01:06;;;;;;;9.35;4.65;;;;;;;;;;5014191;28;20569;-74
2022/10/29 05:03:36;;;;;;;11.63;5.28;;;;;;;;;;5016501;28;20112;-75
2022/10/29 05:06:05;;;;;;;7.72;4.82;;;;;;;;;;5017858;28;20101;-74
2022/10/29 05:08:33;;;;;;;11.90;5.50;;;;;;;;;;5017991;28;20057;-74
2022/10/29 05:11:13;;;;;;;12.80;5.10;;;;;;;;;;5016813;28;20038;-74
2022/10/29 05:13:44;;;;;;;9.45;5.03;;;;;;;;;;5017417;28;20126;-71
2022/10/29 05:16:17;;;;;;;12.93;4.63;;;;;;;;;;5005724;28;20058;-73
2022/10/29 05:18:46;;;;;;;17.20;4.45;;;;;;;;;;5014589;28;20297;-73
2022/10/29 05:21:13;;;;;;;8.15;3.78;;;;;;;;;;5016523;28;20514;-73
2022/10/29 05:24:12;;;;;;;;;;;;;;;;;;;;;
2022/10/29 05:26:39;;;;;;;9.57;4.55;;;;;;;;;;5014268;28;20031;-73
2022/10/29 05:29:06;;;;;;;10.25;4.18;;;;;;;;;;5010617;28;20054;-73
2022/10/29 05:31:39;;;;;;;20.17;5.00;;;;;;;;;;5017929;28;20105;-73
2022/10/29 05:34:07;;;;;;;11.40;4.15;;;;;;;;;;5004115;28;20046;-73
2022/10/29 05:36:43;;;;;;;;;;;;;;;;;;5006195;28;20807;-73
2022/10/29 05:39:14;;;;;;;8.75;3.95;;;;;;;;;;5012091;28;43155;-74
2022/10/29 05:41:53;;;;;;;9.77;4.53;;;;;;;;;;5014312;28;20734;-73
2022/10/29 05:44:21;;;;;;;10.32;5.53;;;;;;;;;;5014489;28;20159;-73
2022/10/29 05:46:49;;;;;;;20.23;6.50;;;;;;;;;;5012266;28;20039;-73
2022/10/29 05:49:23;;;;;;;12.10;5.20;;;;;;;;;;5028067;28;20157;-74
2022/10/29 05:51:59;;;;;;;8.73;5.13;;;;;;;;;;5014428;28;20070;-74
2022/10/29 05:54:27;;;;;;;12.98;5.13;;;;;;;;;;5015073;28;20058;-74
2022/10/29 05:56:54;;;;;;;15.48;5.30;;;;;;;;;;5015896;28;20670;-74
2022/10/29 05:59:27;;;;;;;10.68;5.25;;;;;;;;;;5015413;28;20243;-73
2022/10/29 06:02:06;;;;;;;12.07;4.88;;;;;;;;;;5012869;28;20895;-74
2022/10/29 06:04:43;;;;;;;11.23;4.75;;;;;;;;;;5006018;28;20050;-73
2022/10/29 06:07:17;;;;;;;12.02;5.32;;;;;;;;;;5013984;28;20085;-73
2022/10/29 06:09:45;;;;;;;15.95;5.65;;;;;;;;;;5010477;28;20074;-73
2022/10/29 06:12:16;;;;;;;14.45;5.13;;;;;;;;;;5028657;28;20081;-73
2022/10/29 06:14:44;;;;;;;11.07;5.80;;;;;;;;;;5010066;28;20046;-73
2022/10/29 06:17:14;;;;;;;9.90;5.47;;;;;;;;;;5008192;28;20037;-73
2022/10/29 06:19:42;;;;;;;17.50;5.30;;;;;;;;;;5006270;28;20054;-73
2022/10/29 06:22:13;;;;;;;11.45;5.50;;;;;;;;;;5023569;28;20073;-74
2022/10/29 06:24:43;;;;;;;15.77;5.90;;;;;;;;;;5012426;28;20046;-74
2022/10/29 06:27:10;;;;;;;10.63;5.75;;;;;;;;;;5006459;28;20836;-74
2022/10/29 06:29:37;;;;;;;10.95;5.25;;;;;;;;;;5009235;28;20050;-74
2022/10/29 06:32:05;;;;;;;10.60;4.90;;;;;;;;;;5008625;28;20411;-73
2022/10/29 06:34:38;;;;;;;11.75;5.28;;;;;;;;;;5008646;28;20077;-73
2022/10/29 06:37:05;;;;;;;11.88;5.53;;;;;;;;;;5010043;28;20038;-73
2022/10/29 06:39:33;;;;;;;11.77;5.38;;;;;;;;;;5008451;28;20051;-74
2022/10/29 06:42:00;;;;;;;14.18;5.80;;;;;;;;;;5008039;28;20887;-74
2022/10/29 06:44:30;;;;;;;14.55;6.47;;;;;;;;;;5005744;28;20057;-73
2022/10/29 06:47:03;;;;;;;10.48;5.88;;;;;;;;;;5005476;28;20053;-74
2022/10/29 06:49:32;;;;;;;10.10;5.00;;;;;;;;;;5005210;28;20054;-74
2022/10/29 06:51:59;;;;;;;10.10;5.18;;;;;;;;;;5002239;28;20057;-74
2022/10/29 06:54:26;;;;;;;17.77;6.63;;;;;;;;;;5007982;28;20049;-72
2022/10/29 06:56:56;;;;;;;12.93;7.32;;;;;;;;;;5009184;28;20050;-74
2022/10/29 06:59:23;;;;;;;14.32;6.97;;;;;;;;;;5001884;28;20461;-72
2022/10/29 07:01:50;;;;;;;11.77;6.47;;;;;;;;;;5002543;28;20054;-72
2022/10/29 07:04:22;;;;;;;12.77;6.40;;;;;;;;;;5003190;28;20114;-72
2022/10/29 07:06:49;;;;;;;10.77;5.90;;;;;;;;;;5006672;28;20091;-73
2022/10/29 07:09:25;;;;;;;15.57;6.60;;;;;;;;;;5009909;28;21050;-73
2022/10/29 07:11:52;;;;;;;13.77;6.38;;;;;;;;;;5008526;28;20117;-73
2022/10/29 07:14:19;;;;;;;13.35;6.45;;;;;;;;;;5008582;28;20055;-73
2022/10/29 07:16:49;;;;;;;14.63;6.93;;;;;;;;;;5005319;28;20622;-73
2022/10/29 07:19:17;;;;;;;13.98;6.97;;;;;;;;;;5005294;28;20094;-74
2022/10/29 07:21:44;;;;;;;12.25;6.40;;;;;;;;;;5000400;28;20496;-72
2022/10/29 07:24:11;;;;;;;15.55;7.28;;;;;;;;;;5005730;28;20506;-73
2022/10/29 07:26:38;;;;;;;14.63;6.63;;;;;;;;;;5002104;28;20054;-74
2022/10/29 07:29:17;;;;;;;13.07;6.97;;;;;;;;;;4995947;28;20910;-74
2022/10/29 07:31:44;;;;;;;15.18;7.43;;;;;;;;;;5004441;28;20062;-74
2022/10/29 07:34:21;;;;;;;13.20;6.25;;;;;;;;;;5002463;28;20914;-73
2022/10/29 07:36:48;;;;;;;13.52;6.80;;;;;;;;;;4995077;28;20055;-75
2022/10/29 07:39:16;;;;;;;14.10;6.35;;;;;;;;;;5004717;28;20494;-74
2022/10/29 07:42:29;;;;;;;19.13;7.70;;;;;;;;;;5001449;28;20142;-74
2022/10/29 07:44:42;;;;;;;15.25;6.47;;;;;;;;;;4998239;28;20054;-74
2022/10/29 07:47:11;;;;;;;11.77;6.90;;;;;;;;;;5021759;28;20055;-75
2022/10/29 07:49:38;;;;;;;19.20;7.70;;;;;;;;;;5001930;28;20918;-75
2022/10/29 07:52:05;;;;;;;18.13;7.65;;;;;;;;;;5000291;28;20248;-72
2022/10/29 07:54:36;;;;;;;24.25;8.32;;;;;;;;;;5001256;28;20066;-75
2022/10/29 07:57:06;;;;;;;21.30;8.10;;;;;;;;;;5005319;28;20142;-73
2022/10/29 07:59:34;;;;;;;13.55;7.45;;;;;;;;;;4996896;28;20057;-75
2022/10/29 08:02:04;;;;;;;17.15;7.63;;;;;;;;;;5002173;28;20101;-72
2022/10/29 08:04:35;;;;;;;18.77;7.47;;;;;;;;;;4998576;28;20078;-74
2022/10/29 08:07:02;;;;;;;20.23;8.40;;;;;;;;;;5021425;28;20141;-74
2022/10/29 08:09:30;;;;;;;19.58;10.02;;;;;;;;;;5005816;28;20055;-74
2022/10/29 08:11:57;;;;;;;24.90;10.55;;;;;;;;;;4998230;28;20776;-74
2022/10/29 08:14:25;;;;;;;22.75;10.32;;;;;;;;;;5006126;28;20043;-74
2022/10/29 08:16:56;;;;;;;23.15;10.32;;;;;;;;;;5005200;28;20600;-75
2022/10/29 08:19:37;;;;;;;30.70;10.70;;;;;;;;;;5009187;28;20785;-75
2022/10/29 08:22:07;;;;;;;31.92;10.88;;;;;;;;;;5009956;28;20894;-73
2022/10/29 08:24:40;;;;;;;22.70;11.15;;;;;;;;;;5005455;28;21029;-73
2022/10/29 08:27:08;;;;;;;29.27;10.85;;;;;;;;;;5003644;28;20046;-77
2022/10/29 08:29:35;;;;;;;26.55;10.45;;;;;;;;;;5011722;28;20149;-76
2022/10/29 08:32:10;;;;;;;24.50;10.55;;;;;;;;;;5000789;28;20043;-76
2022/10/29 08:34:39;;;;;;;24.77;9.68;;;;;;;;;;5010244;28;20099;-76
2022/10/29 08:37:07;;;;;;;25.17;10.52;;;;;;;;;;5010278;28;20066;-76
2022/10/29 08:39:41;;;;;;;21.17;9.90;;;;;;;;;;5004317;28;20074;-74
2022/10/29 08:42:29;;;;;;;18.92;9.10;;;;;;;;;;5004889;28;20106;-76
2022/10/29 08:45:12;;;;;;;18.63;9.43;;;;;;;;;;5011397;28;20054;-76
2022/10/29 08:47:39;;;;;;;;;;;;;;;;;;5011739;28;20832;-74
2022/10/29 08:50:27;;;;;;;22.50;9.10;;;;;;;;;;5010007;28;42681;-77
2022/10/29 08:53:09;;;;;;;18.10;8.60;;;;;;;;;;5011274;28;20058;-76
2022/10/29 08:55:49;;;;;;;18.75;8.73;;;;;;;;;;5014603;28;20046;-75
2022/10/29 08:58:28;;;;;;;27.48;8.85;;;;;;;;;;5011412;28;20125;-76
2022/10/29 09:00:57;;;;;;;16.95;7.75;;;;;;;;;;5002254;28;20064;-74
2022/10/29 09:03:26;;;;;;;17.95;7.93;;;;;;;;;;5005423;28;20227;-77
2022/10/29 09:05:53;;;;;;;18.92;8.38;;;;;;;;;;5002472;28;20063;-74
2022/10/29 09:08:38;;;;;;;14.68;7.97;;;;;;;;;;5007887;28;20050;-74
2022/10/29 09:11:13;;;;;;;25.63;8.50;;;;;;;;;;5008744;28;20050;-74
2022/10/29 09:13:45;;;;;;;18.17;8.48;;;;;;;;;;5010929;28;20073;-74
2022/10/29 09:16:32;;;;;;;19.65;9.20;;;;;;;;;;4992933;28;20111;-73
2022/10/29 09:19:02;;;;;;;17.25;8.98;;;;;;;;;;5001539;28;20051;-73
2022/10/29 09:21:39;;;;;;;23.88;9.65;;;;;;;;;;4991021;28;20098;-74
2022/10/29 09:24:09;;;;;;;21.38;9.43;;;;;;;;;;4992307;28;20173;-75
2022/10/29 09:26:44;;;;;;;16.88;8.70;;;;;;;;;;5009119;28;20855;-73
2022/10/29 09:29:30;;;;;;;25.00;9.15;;;;;;;;;;5008896;28;20050;-75
2022/10/29 09:32:06;;;;;;;15.73;7.97;;;;;;;;;;4998941;28;20058;-75
2022/10/29 09:35:04;;;;;;;20.45;8.15;;;;;;;;;;4997744;28;20809;-74
2022/10/29 09:37:48;;;;;;;21.40;7.72;;;;;;;;;;4998259;28;20146;-75
2022/10/29 09:40:17;;;;;;;17.15;7.70;;;;;;;;;;5007282;28;20056;-75
2022/10/29 09:42:46;;;;;;;20.60;8.60;;;;;;;;;;5008341;28;20054;-75
2022/10/29 09:45:18;;;;;;;17.48;8.95;;;;;;;;;;4997467;28;20129;-75
2022/10/29 09:48:03;;;;;;;23.02;8.73;;;;;;;;;;5006502;28;20054;-75
2022/10/29 09:50:34;;;;;;;15.07;8.93;;;;;;;;;;5002608;28;20844;-75
2022/10/29 09:53:02;;;;;;;25.23;8.77;;;;;;;;;;4999524;28;20176;-75
2022/10/29 09:55:43;;;;;;;19.00;8.43;;;;;;;;;;5002731;28;20094;-74
2022/10/29 09:58:29;;;;;;;20.52;8.18;;;;;;;;;;5019003;28;20606;-75
2022/10/29 10:01:11;;;;;;;18.02;8.80;;;;;;;;;;5008813;28;20050;-73
2022/10/29 10:03:40;;;;;;;21.38;7.75;;;;;;;;;;4990380;28;20061;-75
2022/10/29 10:06:13;;;;;;;14.23;7.43;;;;;;;;;;4996947;28;20114;-74
2022/10/29 10:09:20;;;;;;;20.10;7.90;;;;;;;;;;4993852;28;20054;-74
2022/10/29 10:11:53;;;;;;;16.35;8.10;;;;;;;;;;4984946;28;20090;-75
2022/10/29 10:14:21;;;;;;;24.00;8.82;;;;;;;;;;4976893;28;20055;-74
2022/10/29 10:16:58;;;;;;;18.75;8.80;;;;;;;;;;4980360;28;20055;-75
2022/10/29 10:19:30;;;;;;;24.85;9.38;;;;;;;;;;4979606;28;20043;-73
2022/10/29 10:21:59;;;;;;;21.40;10.05;;;;;;;;;;4985478;28;20098;-74
2022/10/29 10:24:40;;;;;;;27.95;8.95;;;;;;;;;;4967743;28;20229;-73
2022/10/29 10:27:40;;;;;;;17.83;8.70;;;;;;;;;;4969876;28;20047;-74
2022/10/29 10:30:23;;;;;;;16.60;9.05;;;;;;;;;;4984980;28;20107;-73
2022/10/29 10:32:53;;;;;;;14.45;8.23;;;;;;;;;;4984841;28;20160;-74
2022/10/29 10:35:30;;;;;;;19.90;8.18;;;;;;;;;;4984937;28;20131;-74
2022/10/29 10:38:00;;;;;;;21.30;8.20;;;;;;;;;;4984766;28;20054;-74
2022/10/29 10:40:30;;;;;;;;;;;;;;;;;;4968747;28;20050;-76
2022/10/29 10:43:01;;;;;;;14.20;7.03;;;;;;;;;;4986690;28;44643;-73
2022/10/29 10:45:39;;;;;;;16.92;7.95;;;;;;;;;;5018730;28;20105;-74
2022/10/29 10:48:09;;;;;;;16.10;7.80;;;;;;;;;;5005842;28;20057;-74
2022/10/29 10:50:47;;;;;;;17.50;8.05;;;;;;;;;;5007698;28;20145;-74
2022/10/29 10:53:34;;;;;;;14.82;7.70;;;;;;;;;;5006177;28;20837;-75
2022/10/29 10:56:02;;;;;;;17.70;7.72;;;;;;;;;;5004596;28;20062;-74
2022/10/29 10:58:44;;;;;;;22.05;8.45;;;;;;;;;;5007622;28;20816;-73
2022/10/29 11:01:18;;;;;;;17.00;7.97;;;;;;;;;;5005188;28;20524;-74
2022/10/29 11:03:49;;;;;;;19.23;7.50;;;;;;;;;;4999932;28;20034;-73
2022/10/29 11:06:23;;;;;;;20.63;6.93;;;;;;;;;;5006933;28;20051;-73
2022/10/29 11:09:00;;;;;;;16.42;6.70;;;;;;;;;;5002937;28;20066;-73
2022/10/29 11:11:33;;;;;;;18.45;6.82;;;;;;;;;;5022124;28;20628;-73
2022/10/29 11:14:00;;;;;;;;;;;;;;;;;;4996661;28;20113;-73
2022/10/29 11:16:27;;;;;;;22.52;7.82;;;;;;;;;;4993780;28;44803;-75
2022/10/29 11:18:59;;;;;;;15.05;6.70;;;;;;;;;;5006997;28;20054;-74
2022/10/29 11:21:34;;;;;;;16.70;8.10;;;;;;;;;;4994262;28;20051;-73
2022/10/29 11:24:22;;;;;;;20.17;7.10;;;;;;;;;;4998199;28;20931;-74
2022/10/29 11:26:49;;;;;;;20.15;7.35;;;;;;;;;;4985124;28;20105;-73
2022/10/29 11:29:19;;;;;;;16.75;6.47;;;;;;;;;;5006460;28;20824;-74
2022/10/29 11:32:10;;;;;;;18.73;9.85;;;;;;;;;;5006057;28;20489;-74
2022/10/29 11:35:09;;;;;;;17.23;9.20;;;;;;;;;;5001576;28;20857;-74
2022/10/29 11:37:57;;;;;;;16.45;7.00;;;;;;;;;;4999354;28;20050;-74
2022/10/29 11:40:28;;;;;;;15.80;6.50;;;;;;;;;;5001964;28;20051;-74
2022/10/29 11:42:55;;;;;;;21.20;7.65;;;;;;;;;;5005381;28;20050;-75
2022/10/29 11:45:27;;;;;;;14.93;6.32;;;;;;;;;;5006540;28;20058;-74
2022/10/29 11:48:13;;;;;;;16.77;5.93;;;;;;;;;;5001358;28;20505;-74
2022/10/29 11:50:52;;;;;;;17.08;6.10;;;;;;;;;;4996327;28;20055;-73
2022/10/29 11:53:22;;;;;;;15.57;5.93;;;;;;;;;;5008797;28;20058;-73
2022/10/29 11:55:50;;;;;;;13.35;6.18;;;;;;;;;;5007919;28;20533;-74
2022/10/29 11:58:19;;;;;;;15.30;7.10;;;;;;;;;;5007881;28;20907;-73
2022/10/29 12:00:53;;;;;;;17.90;7.18;;;;;;;;;;5006172;28;20046;-74
2022/10/29 12:03:28;;;;;;;24.27;7.53;;;;;;;;;;4996383;28;20891;-73
2022/10/29 12:06:11;;;;;;;25.20;11.13;;;;;;;;;;5003367;28;20046;-74
2022/10/29 12:09:00;;;;;;;24.30;11.43;;;;;;;;;;5016116;28;20133;-74
2022/10/29 12:11:48;;;;;;;24.27;10.23;;;;;;;;;;5006439;28;20058;-74
2022/10/29 12:14:39;;;;;;;16.55;8.15;;;;;;;;;;5000141;28;20836;-74
2022/10/29 12:17:33;;;;;;;16.17;7.30;;;;;;;;;;5009095;28;20058;-73
2022/10/29 12:20:17;;;;;;;15.68;7.70;;;;;;;;;;5004725;28;20844;-73
2022/10/29 12:23:06;;;;;;;20.58;7.22;;;;;;;;;;5007110;28;20054;-73
2022/10/29 12:25:55;;;;;;;20.33;7.28;;;;;;;;;;5001759;28;21281;-73
2022/10/29 12:28:46;;;;;;;22.23;8.25;;;;;;;;;;5005691;28;20544;-73
2022/10/29 12:31:19;;;;;;;21.75;7.80;;;;;;;;;;5007537;28;20082;-73
2022/10/29 12:33:56;;;;;;;14.85;7.85;;;;;;;;;;5000421;28;20075;-74
2022/10/29 12:36:32;;;;;;;16.98;7.80;;;;;;;;;;5001748;28;20145;-73
2022/10/29 12:39:00;;;;;;;22.17;8.45;;;;;;;;;;5002489;28;20047;-73
2022/10/29 12:41:33;;;;;;;16.25;7.78;;;;;;;;;;5003774;28;20054;-74
2022/10/29 12:44:08;;;;;;;14.82;8.25;;;;;;;;;;5009530;28;20109;-73
2022/10/29 12:46:45;;;;;;;23.75;9.35;;;;;;;;;;5005622;28;20038;-74
2022/10/29 12:49:18;;;;;;;15.63;7.95;;;;;;;;;;5006236;28;20050;-74
2022/10/29 12:52:11;;;;;;;19.00;8.68;;;;;;;;;;5004982;28;20057;-72
2022/10/29 12:54:49;;;;;;;17.73;7.22;;;;;;;;;;5006162;28;20490;-72
2022/10/29 12:57:23;;;;;;;17.23;7.07;;;;;;;;;;5010435;28;20058;-72
2022/10/29 12:59:52;;;;;;;15.38;7.55;;;;;;;;;;5005295;28;20034;-73
2022/10/29 13:02:38;;;;;;;18.23;7.85;;;;;;;;;;5009609;28;20053;-72
2022/10/29 13:05:12;;;;;;;20.00;7.97;;;;;;;;;;5009357;28;20062;-73
2022/10/29 13:07:49;;;;;;;15.68;8.70;;;;;;;;;;5008069;28;20057;-72
2022/10/29 13:10:22;;;;;;;25.75;8.75;;;;;;;;;;5006525;28;20050;-72
2022/10/29 13:12:56;;;;;;;37.10;10.20;;;;;;;;;;4997941;28;20094;-73
2022/10/29 13:15:35;;;;;;;21.38;10.88;;;;;;;;;;5006268;28;21087;-73
2022/10/29 13:18:07;;;;;;;20.15;9.38;;;;;;;;;;5007067;28;21037;-72
2022/10/29 13:20:34;;;;;;;18.33;8.77;;;;;;;;;;5011094;28;20050;-72
2022/10/29 13:23:04;;;;;;;22.33;7.88;;;;;;;;;;5001465;28;20058;-73
2022/10/29 13:25:36;;;;;;;17.35;7.43;;;;;;;;;;5000562;28;20472;-72
2022/10/29 13:28:10;;;;;;;15.27;7.22;;;;;;;;;;5009812;28;20938;-73
2022/10/29 13:30:45;;;;;;;21.08;7.00;;;;;;;;;;5004070;28;20101;-72
2022/10/29 13:33:36;;;;;;;16.48;7.63;;;;;;;;;;5013830;28;20137;-72
2022/10/29 13:36:23;;;;;;;22.50;6.75;;;;;;;;;;4998135;28;20077;-72
2022/10/29 13:38:50;;;;;;;18.85;7.10;;;;;;;;;;5003652;28;20492;-73
2022/10/29 13:41:42;;;;;;;19.97;7.67;;;;;;;;;;5004126;28;20157;-72
2022/10/29 13:44:10;;;;;;;16.05;6.72;;;;;;;;;;5004183;28;21112;-73
2022/10/29 13:46:43;;;;;;;14.48;6.80;;;;;;;;;;5007051;28;20051;-73
2022/10/29 13:49:15;;;;;;;14.75;6.68;;;;;;;;;;4997633;28;20065;-72
2022/10/29 13:51:53;;;;;;;16.65;6.95;;;;;;;;;;5015778;28;20086;-73
2022/10/29 13:54:36;;;;;;;13.70;6.83;;;;;;;;;;5011063;28;20144;-72
2022/10/29 13:57:16;;;;;;;17.35;7.57;;;;;;;;;;5003752;28;21154;-71
2022/10/29 13:59:46;;;;;;;15.73;6.95;;;;;;;;;;5007053;28;20122;-72
2022/10/29 14:02:23;;;;;;;20.58;7.25;;;;;;;;;;5002780;28;20062;-73
2022/10/29 14:04:52;;;;;;;17.70;7.28;;;;;;;;;;5005465;28;20059;-72
2022/10/29 14:07:23;;;;;;;17.25;6.70;;;;;;;;;;5010534;28;20042;-72
2022/10/29 14:09:53;;;;;;;26.55;7.68;;;;;;;;;;5008135;28;20116;-73
2022/10/29 14:12:24;;;;;;;20.92;7.03;;;;;;;;;;4998702;28;20057;-73
2022/10/29 14:14:57;;;;;;;20.92;7.15;;;;;;;;;;5009873;28;20119;-73
2022/10/29 14:17:27;;;;;;;19.98;6.65;;;;;;;;;;4999461;28;20078;-72
2022/10/29 14:19:54;;;;;;;15.82;6.40;;;;;;;;;;5004547;28;20145;-73
2022/10/29 14:22:28;;;;;;;17.38;6.65;;;;;;;;;;5000888;28;20054;-72
2022/10/29 14:24:57;;;;;;;20.13;6.60;;;;;;;;;;4996787;28;20875;-72
2022/10/29 14:27:24;;;;;;;16.30;6.35;;;;;;;;;;5003040;28;20808;-72
2022/10/29 14:29:51;;;;;;;14.60;6.35;;;;;;;;;;5011904;28;20046;-73
2022/10/29 14:32:22;;;;;;;21.02;6.45;;;;;;;;;;5010958;28;20141;-72
2022/10/29 14:34:50;;;;;;;14.05;5.82;;;;;;;;;;5007304;28;20116;-73
2022/10/29 14:37:25;;;;;;;16.03;6.20;;;;;;;;;;5007823;28;20081;-72
2022/10/29 14:39:53;;;;;;;18.05;6.72;;;;;;;;;;5011715;28;20274;-73
2022/10/29 14:42:25;;;;;;;17.35;6.13;;;;;;;;;;5010269;28;21307;-73
2022/10/29 14:44:54;;;;;;;17.15;5.50;;;;;;;;;;5011666;28;20054;-72
2022/10/29 14:47:27;;;;;;;15.20;5.75;;;;;;;;;;5009915;28;20051;-72
2022/10/29 14:50:13;;;;;;;15.07;5.85;;;;;;;;;;5004679;28;20101;-73
2022/10/29 14:52:48;;;;;;;18.38;6.38;;;;;;;;;;5004679;28;20053;-73
2022/10/29 14:55:25;;;;;;;15.18;5.78;;;;;;;;;;5023461;28;20086;-73
2022/10/29 14:58:00;;;;;;;14.63;6.30;;;;;;;;;;5006012;28;20061;-73
2022/10/29 15:00:29;;;;;;;13.73;6.30;;;;;;;;;;5003870;28;20078;-73
2022/10/29 15:02:57;;;;;;;14.15;6.32;;;;;;;;;;5010100;28;20643;-72
2022/10/29 15:05:27;;;;;;;16.08;6.18;;;;;;;;;;5002263;28;20090;-72
2022/10/29 15:08:13;;;;;;;11.55;5.80;;;;;;;;;;5003153;28;20883;-73
2022/10/29 15:10:45;;;;;;;17.13;6.00;;;;;;;;;;5002646;28;20131;-72
2022/10/29 15:13:14;;;;;;;17.08;6.03;;;;;;;;;;5022564;28;20580;-73
2022/10/29 15:15:50;;;;;;;19.92;6.50;;;;;;;;;;4999122;28;20051;-73
2022/10/29 15:18:22;;;;;;;14.65;5.57;;;;;;;;;;5009792;28;20139;-72